sensor_id;sensor_type;location;lat;lon;timestamp;P1;durP1;ratioP1;P2;durP2;ratioP2
8252;SDS011;61313;48.396;10.008;2024-01-07T00:01:14;10.77;;;7.03;;
8252;SDS011;61313;48.396;10.008;2024-01-07T00:03:40;7.60;;;6.43;;
8252;SDS011;61313;48.396;10.008;2024-01-07T00:06:07;9.20;;;6.90;;
8252;SDS011;61313;48.396;10.008;2024-01-07T00:08:32;12.77;;;8.13;;
8252;SDS011;61313;48.396;10.008;2024-01-07T00:10:58;9.37;;;6.40;;
8252;SDS011;61313;48.396;10.008;2024-01-07T00:13:23;8.60;;;6.80;;
8252;SDS011;61313;48.396;10.008;2024-01-07T00:15:48;8.77;;;7.87;;
8252;SDS011;61313;48.396;10.008;2024-01-07T00:18:14;9.63;;;8.00;;
8252;SDS011;61313;48.396;10.008;2024-01-07T00:20:39;9.53;;;7.13;;
8252;SDS011;61313;48.396;10.008;2024-01-07T00:23:05;9.60;;;7.47;;
8252;SDS011;61313;48.396;10.008;2024-01-07T00:25:30;9.27;;;7.80;;
8252;SDS011;61313;48.396;10.008;2024-01-07T00:27:55;8.90;;;8.00;;
8252;SDS011;61313;48.396;10.008;2024-01-07T00:30:21;11.30;;;8.30;;
8252;SDS011;61313;48.396;10.008;2024-01-07T00:32:46;8.13;;;6.87;;
8252;SDS011;61313;48.396;10.008;2024-01-07T00:35:12;9.60;;;7.70;;
8252;SDS011;61313;48.396;10.008;2024-01-07T00:37:37;9.30;;;7.60;;
8252;SDS011;61313;48.396;10.008;2024-01-07T00:40:03;11.97;;;7.67;;
8252;SDS011;61313;48.396;10.008;2024-01-07T00:42:29;8.67;;;7.40;;
8252;SDS011;61313;48.396;10.008;2024-01-07T00:44:55;10.60;;;8.83;;
8252;SDS011;61313;48.396;10.008;2024-01-07T00:47:21;7.90;;;6.83;;
8252;SDS011;61313;48.396;10.008;2024-01-07T00:49:46;10.13;;;6.63;;
8252;SDS011;61313;48.396;10.008;2024-01-07T00:52:12;9.60;;;7.80;;
8252;SDS011;61313;48.396;10.008;2024-01-07T00:54:37;10.60;;;7.33;;
8252;SDS011;61313;48.396;10.008;2024-01-07T00:57:03;9.40;;;6.80;;
8252;SDS011;61313;48.396;10.008;2024-01-07T00:59:29;9.00;;;8.10;;
8252;SDS011;61313;48.396;10.008;2024-01-07T01:01:57;9.60;;;6.90;;
8252;SDS011;61313;48.396;10.008;2024-01-07T01:04:22;8.60;;;6.97;;
8252;SDS011;61313;48.396;10.008;2024-01-07T01:06:47;10.10;;;7.30;;
8252;SDS011;61313;48.396;10.008;2024-01-07T01:09:13;8.00;;;7.17;;
8252;SDS011;61313;48.396;10.008;2024-01-07T01:11:38;10.53;;;7.77;;
8252;SDS011;61313;48.396;10.008;2024-01-07T01:14:03;9.67;;;7.43;;
8252;SDS011;61313;48.396;10.008;2024-01-07T01:16:29;9.93;;;8.67;;
8252;SDS011;61313;48.396;10.008;2024-01-07T01:18:54;9.27;;;7.00;;
8252;SDS011;61313;48.396;10.008;2024-01-07T01:21:20;9.97;;;7.37;;
8252;SDS011;61313;48.396;10.008;2024-01-07T01:23:46;8.93;;;7.57;;
8252;SDS011;61313;48.396;10.008;2024-01-07T01:26:11;10.00;;;7.97;;
8252;SDS011;61313;48.396;10.008;2024-01-07T01:28:37;11.77;;;8.57;;
8252;SDS011;61313;48.396;10.008;2024-01-07T01:31:02;10.17;;;7.37;;
8252;SDS011;61313;48.396;10.008;2024-01-07T01:33:27;8.87;;;6.80;;
8252;SDS011;61313;48.396;10.008;2024-01-07T01:35:53;8.87;;;7.07;;
8252;SDS011;61313;48.396;10.008;2024-01-07T01:38:18;14.00;;;7.63;;
8252;SDS011;61313;48.396;10.008;2024-01-07T01:40:43;9.60;;;7.30;;
8252;SDS011;61313;48.396;10.008;2024-01-07T01:43:09;8.90;;;7.50;;
8252;SDS011;61313;48.396;10.008;2024-01-07T01:45:34;11.00;;;8.23;;
8252;SDS011;61313;48.396;10.008;2024-01-07T01:48:00;9.07;;;7.67;;
8252;SDS011;61313;48.396;10.008;2024-01-07T01:50:25;10.07;;;8.07;;
8252;SDS011;61313;48.396;10.008;2024-01-07T01:52:51;11.10;;;7.33;;
8252;SDS011;61313;48.396;10.008;2024-01-07T01:55:17;12.73;;;8.77;;
8252;SDS011;61313;48.396;10.008;2024-01-07T01:57:44;10.00;;;7.30;;
8252;SDS011;61313;48.396;10.008;2024-01-07T02:00:12;11.40;;;8.70;;
8252;SDS011;61313;48.396;10.008;2024-01-07T02:02:38;7.80;;;6.60;;
8252;SDS011;61313;48.396;10.008;2024-01-07T02:05:03;8.60;;;7.70;;
8252;SDS011;61313;48.396;10.008;2024-01-07T02:07:32;9.70;;;7.80;;
8252;SDS011;61313;48.396;10.008;2024-01-07T02:09:59;9.53;;;7.70;;
8252;SDS011;61313;48.396;10.008;2024-01-07T02:12:24;9.00;;;7.60;;
8252;SDS011;61313;48.396;10.008;2024-01-07T02:14:50;9.57;;;7.47;;
8252;SDS011;61313;48.396;10.008;2024-01-07T02:17:15;9.53;;;8.07;;
8252;SDS011;61313;48.396;10.008;2024-01-07T02:19:41;9.13;;;7.33;;
8252;SDS011;61313;48.396;10.008;2024-01-07T02:22:06;9.67;;;8.27;;
8252;SDS011;61313;48.396;10.008;2024-01-07T02:24:32;10.23;;;8.07;;
8252;SDS011;61313;48.396;10.008;2024-01-07T02:26:57;11.10;;;8.47;;
8252;SDS011;61313;48.396;10.008;2024-01-07T02:29:23;9.93;;;7.60;;
8252;SDS011;61313;48.396;10.008;2024-01-07T02:31:48;9.73;;;7.70;;
8252;SDS011;61313;48.396;10.008;2024-01-07T02:34:13;10.10;;;7.97;;
8252;SDS011;61313;48.396;10.008;2024-01-07T02:36:39;11.20;;;7.57;;
8252;SDS011;61313;48.396;10.008;2024-01-07T02:39:04;13.97;;;7.93;;
8252;SDS011;61313;48.396;10.008;2024-01-07T02:41:29;9.00;;;7.80;;
8252;SDS011;61313;48.396;10.008;2024-01-07T02:43:55;9.37;;;7.33;;
8252;SDS011;61313;48.396;10.008;2024-01-07T02:46:20;11.40;;;8.50;;
8252;SDS011;61313;48.396;10.008;2024-01-07T02:48:47;10.03;;;7.30;;
8252;SDS011;61313;48.396;10.008;2024-01-07T02:51:12;12.40;;;8.10;;
8252;SDS011;61313;48.396;10.008;2024-01-07T02:53:37;9.50;;;7.53;;
8252;SDS011;61313;48.396;10.008;2024-01-07T02:56:03;8.57;;;7.23;;
8252;SDS011;61313;48.396;10.008;2024-01-07T02:58:28;10.40;;;8.10;;
8252;SDS011;61313;48.396;10.008;2024-01-07T03:00:54;9.63;;;7.90;;
8252;SDS011;61313;48.396;10.008;2024-01-07T03:03:19;9.67;;;8.10;;
8252;SDS011;61313;48.396;10.008;2024-01-07T03:05:44;9.43;;;7.50;;
8252;SDS011;61313;48.396;10.008;2024-01-07T03:08:10;12.57;;;8.80;;
8252;SDS011;61313;48.396;10.008;2024-01-07T03:10:35;9.43;;;7.20;;
8252;SDS011;61313;48.396;10.008;2024-01-07T03:13:00;12.23;;;8.43;;
8252;SDS011;61313;48.396;10.008;2024-01-07T03:15:26;10.17;;;7.87;;
8252;SDS011;61313;48.396;10.008;2024-01-07T03:17:52;9.70;;;8.53;;
8252;SDS011;61313;48.396;10.008;2024-01-07T03:20:17;11.37;;;8.00;;
8252;SDS011;61313;48.396;10.008;2024-01-07T03:22:42;13.83;;;8.97;;
8252;SDS011;61313;48.396;10.008;2024-01-07T03:25:08;11.30;;;8.23;;
8252;SDS011;61313;48.396;10.008;2024-01-07T03:27:33;9.87;;;8.60;;
8252;SDS011;61313;48.396;10.008;2024-01-07T03:29:59;12.60;;;7.77;;
8252;SDS011;61313;48.396;10.008;2024-01-07T03:32:24;8.90;;;8.00;;
8252;SDS011;61313;48.396;10.008;2024-01-07T03:34:49;10.00;;;8.20;;
8252;SDS011;61313;48.396;10.008;2024-01-07T03:37:15;9.83;;;8.17;;
8252;SDS011;61313;48.396;10.008;2024-01-07T03:39:42;10.43;;;8.17;;
8252;SDS011;61313;48.396;10.008;2024-01-07T03:42:07;9.43;;;8.37;;
8252;SDS011;61313;48.396;10.008;2024-01-07T03:44:36;13.70;;;9.37;;
8252;SDS011;61313;48.396;10.008;2024-01-07T03:47:03;10.60;;;8.30;;
8252;SDS011;61313;48.396;10.008;2024-01-07T03:49:29;10.90;;;8.00;;
8252;SDS011;61313;48.396;10.008;2024-01-07T03:51:54;11.10;;;7.83;;
8252;SDS011;61313;48.396;10.008;2024-01-07T03:54:19;9.50;;;8.10;;
8252;SDS011;61313;48.396;10.008;2024-01-07T03:56:45;10.50;;;8.27;;
8252;SDS011;61313;48.396;10.008;2024-01-07T03:59:10;17.77;;;8.37;;
8252;SDS011;61313;48.396;10.008;2024-01-07T04:01:35;10.57;;;8.83;;
8252;SDS011;61313;48.396;10.008;2024-01-07T04:04:01;17.10;;;8.20;;
8252;SDS011;61313;48.396;10.008;2024-01-07T04:06:26;12.83;;;7.70;;
8252;SDS011;61313;48.396;10.008;2024-01-07T04:08:52;14.03;;;9.00;;
8252;SDS011;61313;48.396;10.008;2024-01-07T04:11:17;9.83;;;8.83;;
8252;SDS011;61313;48.396;10.008;2024-01-07T04:13:42;10.70;;;8.13;;
8252;SDS011;61313;48.396;10.008;2024-01-07T04:16:17;12.30;;;8.23;;
8252;SDS011;61313;48.396;10.008;2024-01-07T04:18:46;10.47;;;8.27;;
8252;SDS011;61313;48.396;10.008;2024-01-07T04:21:12;9.50;;;7.70;;
8252;SDS011;61313;48.396;10.008;2024-01-07T04:23:38;10.73;;;7.70;;
8252;SDS011;61313;48.396;10.008;2024-01-07T04:26:05;10.17;;;7.50;;
8252;SDS011;61313;48.396;10.008;2024-01-07T04:28:31;9.57;;;8.07;;
8252;SDS011;61313;48.396;10.008;2024-01-07T04:30:56;13.60;;;8.80;;
8252;SDS011;61313;48.396;10.008;2024-01-07T04:33:22;12.47;;;8.17;;
8252;SDS011;61313;48.396;10.008;2024-01-07T04:35:47;15.70;;;9.07;;
8252;SDS011;61313;48.396;10.008;2024-01-07T04:38:12;20.63;;;8.63;;
8252;SDS011;61313;48.396;10.008;2024-01-07T04:40:38;8.63;;;7.73;;
8252;SDS011;61313;48.396;10.008;2024-01-07T04:43:04;8.37;;;7.47;;
8252;SDS011;61313;48.396;10.008;2024-01-07T04:45:29;9.37;;;8.37;;
8252;SDS011;61313;48.396;10.008;2024-01-07T04:47:54;13.00;;;8.93;;
8252;SDS011;61313;48.396;10.008;2024-01-07T04:50:20;10.00;;;7.83;;
8252;SDS011;61313;48.396;10.008;2024-01-07T04:52:46;9.10;;;8.20;;
8252;SDS011;61313;48.396;10.008;2024-01-07T04:55:11;9.83;;;8.20;;
8252;SDS011;61313;48.396;10.008;2024-01-07T04:57:37;10.03;;;8.50;;
8252;SDS011;61313;48.396;10.008;2024-01-07T05:00:02;9.97;;;8.70;;
8252;SDS011;61313;48.396;10.008;2024-01-07T05:02:29;9.53;;;8.53;;
8252;SDS011;61313;48.396;10.008;2024-01-07T05:04:54;9.97;;;7.30;;
8252;SDS011;61313;48.396;10.008;2024-01-07T05:07:20;8.33;;;7.50;;
8252;SDS011;61313;48.396;10.008;2024-01-07T05:09:45;11.43;;;7.83;;
8252;SDS011;61313;48.396;10.008;2024-01-07T05:12:10;12.10;;;8.43;;
8252;SDS011;61313;48.396;10.008;2024-01-07T05:14:36;8.67;;;7.87;;
8252;SDS011;61313;48.396;10.008;2024-01-07T05:17:02;10.83;;;8.93;;
8252;SDS011;61313;48.396;10.008;2024-01-07T05:19:28;9.43;;;8.17;;
8252;SDS011;61313;48.396;10.008;2024-01-07T05:21:54;12.97;;;9.53;;
8252;SDS011;61313;48.396;10.008;2024-01-07T05:24:19;11.80;;;9.70;;
8252;SDS011;61313;48.396;10.008;2024-01-07T05:26:45;13.00;;;9.13;;
8252;SDS011;61313;48.396;10.008;2024-01-07T05:29:10;14.50;;;9.33;;
8252;SDS011;61313;48.396;10.008;2024-01-07T05:31:37;11.20;;;9.50;;
8252;SDS011;61313;48.396;10.008;2024-01-07T05:34:03;11.60;;;8.93;;
8252;SDS011;61313;48.396;10.008;2024-01-07T05:36:28;12.00;;;9.80;;
8252;SDS011;61313;48.396;10.008;2024-01-07T05:38:54;11.70;;;9.30;;
8252;SDS011;61313;48.396;10.008;2024-01-07T05:41:19;11.47;;;9.50;;
8252;SDS011;61313;48.396;10.008;2024-01-07T05:43:45;11.20;;;9.40;;
8252;SDS011;61313;48.396;10.008;2024-01-07T05:46:10;12.37;;;9.80;;
8252;SDS011;61313;48.396;10.008;2024-01-07T05:48:47;12.53;;;10.27;;
8252;SDS011;61313;48.396;10.008;2024-01-07T05:51:14;11.80;;;9.73;;
8252;SDS011;61313;48.396;10.008;2024-01-07T05:53:40;12.17;;;9.40;;
8252;SDS011;61313;48.396;10.008;2024-01-07T05:56:05;10.20;;;9.07;;
8252;SDS011;61313;48.396;10.008;2024-01-07T05:58:31;12.30;;;10.73;;
8252;SDS011;61313;48.396;10.008;2024-01-07T06:00:56;13.70;;;8.80;;
8252;SDS011;61313;48.396;10.008;2024-01-07T06:03:22;10.77;;;8.43;;
8252;SDS011;61313;48.396;10.008;2024-01-07T06:05:47;11.40;;;9.67;;
8252;SDS011;61313;48.396;10.008;2024-01-07T06:08:13;10.63;;;8.50;;
8252;SDS011;61313;48.396;10.008;2024-01-07T06:10:38;12.70;;;9.50;;
8252;SDS011;61313;48.396;10.008;2024-01-07T06:13:05;12.00;;;9.90;;
8252;SDS011;61313;48.396;10.008;2024-01-07T06:15:30;12.10;;;10.00;;
8252;SDS011;61313;48.396;10.008;2024-01-07T06:17:55;12.00;;;8.80;;
8252;SDS011;61313;48.396;10.008;2024-01-07T06:20:21;13.47;;;9.60;;
8252;SDS011;61313;48.396;10.008;2024-01-07T06:22:46;11.37;;;10.13;;
8252;SDS011;61313;48.396;10.008;2024-01-07T06:25:12;11.40;;;9.43;;
8252;SDS011;61313;48.396;10.008;2024-01-07T06:27:40;12.97;;;10.73;;
8252;SDS011;61313;48.396;10.008;2024-01-07T06:30:06;12.97;;;11.20;;
8252;SDS011;61313;48.396;10.008;2024-01-07T06:32:32;11.23;;;10.00;;
8252;SDS011;61313;48.396;10.008;2024-01-07T06:35:00;12.40;;;10.30;;
8252;SDS011;61313;48.396;10.008;2024-01-07T06:37:26;11.90;;;9.70;;
8252;SDS011;61313;48.396;10.008;2024-01-07T06:39:54;11.93;;;9.70;;
8252;SDS011;61313;48.396;10.008;2024-01-07T06:42:20;12.20;;;9.77;;
8252;SDS011;61313;48.396;10.008;2024-01-07T06:44:45;13.77;;;9.87;;
8252;SDS011;61313;48.396;10.008;2024-01-07T06:47:10;14.33;;;11.00;;
8252;SDS011;61313;48.396;10.008;2024-01-07T06:49:36;11.13;;;9.63;;
8252;SDS011;61313;48.396;10.008;2024-01-07T06:52:01;16.67;;;10.97;;
8252;SDS011;61313;48.396;10.008;2024-01-07T06:54:27;16.93;;;9.37;;
8252;SDS011;61313;48.396;10.008;2024-01-07T06:56:52;13.17;;;10.33;;
8252;SDS011;61313;48.396;10.008;2024-01-07T06:59:17;14.90;;;9.80;;
8252;SDS011;61313;48.396;10.008;2024-01-07T07:01:43;20.17;;;11.27;;
8252;SDS011;61313;48.396;10.008;2024-01-07T07:04:08;10.60;;;9.50;;
8252;SDS011;61313;48.396;10.008;2024-01-07T07:06:34;12.00;;;9.87;;
8252;SDS011;61313;48.396;10.008;2024-01-07T07:09:00;14.03;;;10.57;;
8252;SDS011;61313;48.396;10.008;2024-01-07T07:11:25;13.37;;;10.60;;
8252;SDS011;61313;48.396;10.008;2024-01-07T07:13:51;19.93;;;11.00;;
8252;SDS011;61313;48.396;10.008;2024-01-07T07:16:16;15.70;;;10.57;;
8252;SDS011;61313;48.396;10.008;2024-01-07T07:18:41;10.80;;;9.60;;
8252;SDS011;61313;48.396;10.008;2024-01-07T07:21:07;13.63;;;10.03;;
8252;SDS011;61313;48.396;10.008;2024-01-07T07:23:33;14.23;;;10.87;;
8252;SDS011;61313;48.396;10.008;2024-01-07T07:25:58;12.10;;;10.30;;
8252;SDS011;61313;48.396;10.008;2024-01-07T07:28:23;11.80;;;10.00;;
8252;SDS011;61313;48.396;10.008;2024-01-07T07:30:49;13.03;;;10.80;;
8252;SDS011;61313;48.396;10.008;2024-01-07T07:33:14;11.40;;;9.00;;
8252;SDS011;61313;48.396;10.008;2024-01-07T07:35:40;15.03;;;10.70;;
8252;SDS011;61313;48.396;10.008;2024-01-07T07:38:06;19.63;;;10.90;;
8252;SDS011;61313;48.396;10.008;2024-01-07T07:40:32;11.23;;;10.10;;
8252;SDS011;61313;48.396;10.008;2024-01-07T07:42:58;13.00;;;10.10;;
8252;SDS011;61313;48.396;10.008;2024-01-07T07:45:24;12.90;;;9.80;;
8252;SDS011;61313;48.396;10.008;2024-01-07T07:47:49;12.50;;;10.77;;
8252;SDS011;61313;48.396;10.008;2024-01-07T07:50:15;12.03;;;10.53;;
8252;SDS011;61313;48.396;10.008;2024-01-07T07:52:43;16.03;;;10.37;;
8252;SDS011;61313;48.396;10.008;2024-01-07T07:55:09;14.60;;;12.13;;
8252;SDS011;61313;48.396;10.008;2024-01-07T07:57:35;13.67;;;10.90;;
8252;SDS011;61313;48.396;10.008;2024-01-07T08:00:00;13.90;;;11.07;;
8252;SDS011;61313;48.396;10.008;2024-01-07T08:02:26;15.43;;;10.30;;
8252;SDS011;61313;48.396;10.008;2024-01-07T08:04:51;14.03;;;10.43;;
8252;SDS011;61313;48.396;10.008;2024-01-07T08:07:17;14.33;;;10.40;;
8252;SDS011;61313;48.396;10.008;2024-01-07T08:09:42;9.23;;;7.50;;
8252;SDS011;61313;48.396;10.008;2024-01-07T08:12:08;11.03;;;8.00;;
8252;SDS011;61313;48.396;10.008;2024-01-07T08:14:34;11.43;;;10.20;;
8252;SDS011;61313;48.396;10.008;2024-01-07T08:17:00;10.67;;;8.90;;
8252;SDS011;61313;48.396;10.008;2024-01-07T08:19:26;10.70;;;8.93;;
8252;SDS011;61313;48.396;10.008;2024-01-07T08:21:51;10.77;;;9.10;;
8252;SDS011;61313;48.396;10.008;2024-01-07T08:24:17;13.03;;;8.40;;
8252;SDS011;61313;48.396;10.008;2024-01-07T08:26:43;14.30;;;8.70;;
8252;SDS011;61313;48.396;10.008;2024-01-07T08:29:08;13.50;;;9.70;;
8252;SDS011;61313;48.396;10.008;2024-01-07T08:31:34;10.73;;;9.63;;
8252;SDS011;61313;48.396;10.008;2024-01-07T08:33:59;11.03;;;9.03;;
8252;SDS011;61313;48.396;10.008;2024-01-07T08:36:25;10.40;;;9.00;;
8252;SDS011;61313;48.396;10.008;2024-01-07T08:38:50;9.93;;;8.50;;
8252;SDS011;61313;48.396;10.008;2024-01-07T08:41:16;9.40;;;8.47;;
8252;SDS011;61313;48.396;10.008;2024-01-07T08:43:41;11.03;;;8.67;;
8252;SDS011;61313;48.396;10.008;2024-01-07T08:46:07;8.40;;;7.60;;
8252;SDS011;61313;48.396;10.008;2024-01-07T08:48:32;9.30;;;8.27;;
8252;SDS011;61313;48.396;10.008;2024-01-07T08:50:58;9.50;;;8.50;;
8252;SDS011;61313;48.396;10.008;2024-01-07T08:53:23;10.47;;;8.27;;
8252;SDS011;61313;48.396;10.008;2024-01-07T08:55:48;9.57;;;8.00;;
8252;SDS011;61313;48.396;10.008;2024-01-07T08:58:16;8.57;;;7.67;;
8252;SDS011;61313;48.396;10.008;2024-01-07T09:00:42;10.20;;;8.60;;
8252;SDS011;61313;48.396;10.008;2024-01-07T09:03:08;8.60;;;7.73;;
8252;SDS011;61313;48.396;10.008;2024-01-07T09:05:34;9.37;;;7.30;;
8252;SDS011;61313;48.396;10.008;2024-01-07T09:07:59;8.93;;;7.97;;
8252;SDS011;61313;48.396;10.008;2024-01-07T09:10:25;11.30;;;7.50;;
8252;SDS011;61313;48.396;10.008;2024-01-07T09:12:51;11.77;;;8.20;;
8252;SDS011;61313;48.396;10.008;2024-01-07T09:15:18;9.57;;;8.23;;
8252;SDS011;61313;48.396;10.008;2024-01-07T09:17:45;12.20;;;8.40;;
8252;SDS011;61313;48.396;10.008;2024-01-07T09:20:11;10.67;;;7.23;;
8252;SDS011;61313;48.396;10.008;2024-01-07T09:22:37;10.50;;;8.10;;
8252;SDS011;61313;48.396;10.008;2024-01-07T09:25:03;8.57;;;7.67;;
8252;SDS011;61313;48.396;10.008;2024-01-07T09:27:29;8.90;;;7.20;;
8252;SDS011;61313;48.396;10.008;2024-01-07T09:29:54;12.77;;;8.43;;
8252;SDS011;61313;48.396;10.008;2024-01-07T09:32:20;10.10;;;8.33;;
8252;SDS011;61313;48.396;10.008;2024-01-07T09:34:45;10.90;;;8.17;;
8252;SDS011;61313;48.396;10.008;2024-01-07T09:37:11;12.30;;;8.33;;
8252;SDS011;61313;48.396;10.008;2024-01-07T09:39:39;9.90;;;7.27;;
8252;SDS011;61313;48.396;10.008;2024-01-07T09:42:08;9.27;;;7.83;;
8252;SDS011;61313;48.396;10.008;2024-01-07T09:44:37;12.03;;;8.37;;
8252;SDS011;61313;48.396;10.008;2024-01-07T09:47:03;9.23;;;7.43;;
8252;SDS011;61313;48.396;10.008;2024-01-07T09:49:30;10.30;;;7.77;;
8252;SDS011;61313;48.396;10.008;2024-01-07T09:51:57;9.23;;;7.60;;
8252;SDS011;61313;48.396;10.008;2024-01-07T09:54:26;9.60;;;7.20;;
8252;SDS011;61313;48.396;10.008;2024-01-07T09:56:55;9.93;;;7.60;;
8252;SDS011;61313;48.396;10.008;2024-01-07T09:59:23;13.43;;;8.47;;
8252;SDS011;61313;48.396;10.008;2024-01-07T10:01:48;10.10;;;7.60;;
8252;SDS011;61313;48.396;10.008;2024-01-07T10:04:15;9.37;;;7.53;;
8252;SDS011;61313;48.396;10.008;2024-01-07T10:06:40;9.83;;;7.50;;
8252;SDS011;61313;48.396;10.008;2024-01-07T10:09:06;10.33;;;6.80;;
8252;SDS011;61313;48.396;10.008;2024-01-07T10:11:32;10.23;;;7.63;;
8252;SDS011;61313;48.396;10.008;2024-01-07T10:13:58;9.80;;;6.53;;
8252;SDS011;61313;48.396;10.008;2024-01-07T10:16:23;10.03;;;7.27;;
8252;SDS011;61313;48.396;10.008;2024-01-07T10:18:48;11.53;;;8.17;;
8252;SDS011;61313;48.396;10.008;2024-01-07T10:21:14;10.87;;;7.00;;
8252;SDS011;61313;48.396;10.008;2024-01-07T10:23:39;10.17;;;7.10;;
8252;SDS011;61313;48.396;10.008;2024-01-07T10:26:04;9.97;;;7.90;;
8252;SDS011;61313;48.396;10.008;2024-01-07T10:28:31;7.53;;;6.63;;
8252;SDS011;61313;48.396;10.008;2024-01-07T10:30:57;10.90;;;7.60;;
8252;SDS011;61313;48.396;10.008;2024-01-07T10:33:22;7.70;;;6.10;;
8252;SDS011;61313;48.396;10.008;2024-01-07T10:35:56;10.07;;;7.37;;
8252;SDS011;61313;48.396;10.008;2024-01-07T10:38:26;8.53;;;7.20;;
8252;SDS011;61313;48.396;10.008;2024-01-07T10:40:52;9.90;;;6.70;;
8252;SDS011;61313;48.396;10.008;2024-01-07T10:43:23;9.30;;;7.30;;
8252;SDS011;61313;48.396;10.008;2024-01-07T10:45:54;11.97;;;6.77;;
8252;SDS011;61313;48.396;10.008;2024-01-07T10:48:20;9.13;;;7.17;;
8252;SDS011;61313;48.396;10.008;2024-01-07T10:50:48;9.13;;;7.23;;
8252;SDS011;61313;48.396;10.008;2024-01-07T10:53:20;12.70;;;7.40;;
8252;SDS011;61313;48.396;10.008;2024-01-07T10:55:59;11.80;;;7.53;;
8252;SDS011;61313;48.396;10.008;2024-01-07T10:58:28;9.20;;;7.30;;
8252;SDS011;61313;48.396;10.008;2024-01-07T11:00:55;8.67;;;6.40;;
8252;SDS011;61313;48.396;10.008;2024-01-07T11:04:08;9.40;;;7.13;;
8252;SDS011;61313;48.396;10.008;2024-01-07T11:11:44;11.17;;;7.47;;
8252;SDS011;61313;48.396;10.008;2024-01-07T11:17:04;15.50;;;8.60;;
8252;SDS011;61313;48.396;10.008;2024-01-07T11:19:31;8.17;;;6.30;;
8252;SDS011;61313;48.396;10.008;2024-01-07T11:24:54;8.40;;;6.80;;
8252;SDS011;61313;48.396;10.008;2024-01-07T11:27:22;14.57;;;6.77;;
8252;SDS011;61313;48.396;10.008;2024-01-07T11:30:00;9.70;;;6.90;;
8252;SDS011;61313;48.396;10.008;2024-01-07T11:32:29;8.53;;;6.43;;
8252;SDS011;61313;48.396;10.008;2024-01-07T11:34:55;6.70;;;5.43;;
8252;SDS011;61313;48.396;10.008;2024-01-07T11:37:23;9.50;;;6.20;;
8252;SDS011;61313;48.396;10.008;2024-01-07T11:39:50;10.23;;;7.53;;
8252;SDS011;61313;48.396;10.008;2024-01-07T11:42:17;7.23;;;5.87;;
8252;SDS011;61313;48.396;10.008;2024-01-07T11:44:49;8.73;;;6.50;;
8252;SDS011;61313;48.396;10.008;2024-01-07T11:47:19;8.90;;;6.33;;
8252;SDS011;61313;48.396;10.008;2024-01-07T11:49:45;9.00;;;6.30;;
8252;SDS011;61313;48.396;10.008;2024-01-07T11:52:12;10.67;;;6.60;;
8252;SDS011;61313;48.396;10.008;2024-01-07T11:54:38;13.10;;;7.50;;
8252;SDS011;61313;48.396;10.008;2024-01-07T11:57:04;7.40;;;5.73;;
8252;SDS011;61313;48.396;10.008;2024-01-07T11:59:30;8.30;;;6.57;;
8252;SDS011;61313;48.396;10.008;2024-01-07T12:01:56;8.73;;;6.27;;
8252;SDS011;61313;48.396;10.008;2024-01-07T12:04:21;7.80;;;5.77;;
8252;SDS011;61313;48.396;10.008;2024-01-07T12:06:47;8.80;;;7.10;;
8252;SDS011;61313;48.396;10.008;2024-01-07T12:09:13;11.00;;;7.43;;
8252;SDS011;61313;48.396;10.008;2024-01-07T12:11:39;9.63;;;6.40;;
8252;SDS011;61313;48.396;10.008;2024-01-07T12:14:06;10.53;;;7.10;;
8252;SDS011;61313;48.396;10.008;2024-01-07T12:16:33;12.97;;;7.43;;
8252;SDS011;61313;48.396;10.008;2024-01-07T12:18:59;10.77;;;7.80;;
8252;SDS011;61313;48.396;10.008;2024-01-07T12:21:24;10.97;;;7.30;;
8252;SDS011;61313;48.396;10.008;2024-01-07T12:23:51;11.13;;;6.73;;
8252;SDS011;61313;48.396;10.008;2024-01-07T12:26:17;11.30;;;8.07;;
8252;SDS011;61313;48.396;10.008;2024-01-07T12:28:44;8.47;;;6.30;;
8252;SDS011;61313;48.396;10.008;2024-01-07T12:31:10;11.23;;;7.73;;
8252;SDS011;61313;48.396;10.008;2024-01-07T12:33:39;9.20;;;7.10;;
8252;SDS011;61313;48.396;10.008;2024-01-07T12:36:07;9.93;;;7.00;;
8252;SDS011;61313;48.396;10.008;2024-01-07T12:38:33;14.13;;;8.60;;
8252;SDS011;61313;48.396;10.008;2024-01-07T12:40:58;10.67;;;8.40;;
8252;SDS011;61313;48.396;10.008;2024-01-07T12:43:24;11.70;;;8.80;;
8252;SDS011;61313;48.396;10.008;2024-01-07T12:45:49;15.93;;;8.93;;
8252;SDS011;61313;48.396;10.008;2024-01-07T12:48:15;19.00;;;9.27;;
8252;SDS011;61313;48.396;10.008;2024-01-07T12:50:41;10.73;;;8.83;;
8252;SDS011;61313;48.396;10.008;2024-01-07T12:53:06;11.40;;;8.23;;
8252;SDS011;61313;48.396;10.008;2024-01-07T12:55:32;12.97;;;8.90;;
8252;SDS011;61313;48.396;10.008;2024-01-07T12:57:59;13.93;;;9.43;;
8252;SDS011;61313;48.396;10.008;2024-01-07T13:00:25;11.70;;;9.60;;
8252;SDS011;61313;48.396;10.008;2024-01-07T13:02:51;12.80;;;9.90;;
8252;SDS011;61313;48.396;10.008;2024-01-07T13:05:17;11.13;;;8.50;;
8252;SDS011;61313;48.396;10.008;2024-01-07T13:07:43;13.83;;;9.90;;
8252;SDS011;61313;48.396;10.008;2024-01-07T13:10:09;14.13;;;9.40;;
8252;SDS011;61313;48.396;10.008;2024-01-07T13:12:35;13.70;;;8.67;;
8252;SDS011;61313;48.396;10.008;2024-01-07T13:15:03;15.90;;;9.53;;
8252;SDS011;61313;48.396;10.008;2024-01-07T13:17:29;9.93;;;7.70;;
8252;SDS011;61313;48.396;10.008;2024-01-07T13:19:58;9.90;;;7.63;;
8252;SDS011;61313;48.396;10.008;2024-01-07T13:22:23;12.37;;;9.27;;
8252;SDS011;61313;48.396;10.008;2024-01-07T13:24:49;12.00;;;8.50;;
8252;SDS011;61313;48.396;10.008;2024-01-07T13:27:15;14.87;;;9.70;;
8252;SDS011;61313;48.396;10.008;2024-01-07T13:29:42;13.50;;;9.87;;
8252;SDS011;61313;48.396;10.008;2024-01-07T13:32:10;17.50;;;10.03;;
8252;SDS011;61313;48.396;10.008;2024-01-07T13:34:36;12.33;;;9.93;;
8252;SDS011;61313;48.396;10.008;2024-01-07T13:37:01;10.73;;;8.73;;
8252;SDS011;61313;48.396;10.008;2024-01-07T13:39:28;12.87;;;9.23;;
8252;SDS011;61313;48.396;10.008;2024-01-07T13:41:54;14.00;;;10.30;;
8252;SDS011;61313;48.396;10.008;2024-01-07T13:44:20;12.00;;;8.87;;
8252;SDS011;61313;48.396;10.008;2024-01-07T13:46:46;17.87;;;10.13;;
8252;SDS011;61313;48.396;10.008;2024-01-07T13:49:15;15.90;;;9.43;;
8252;SDS011;61313;48.396;10.008;2024-01-07T13:51:41;12.57;;;9.10;;
8252;SDS011;61313;48.396;10.008;2024-01-07T13:54:07;13.97;;;8.93;;
8252;SDS011;61313;48.396;10.008;2024-01-07T13:56:35;13.80;;;9.27;;
8252;SDS011;61313;48.396;10.008;2024-01-07T13:59:01;12.50;;;9.10;;
8252;SDS011;61313;48.396;10.008;2024-01-07T14:01:28;27.87;;;9.60;;
8252;SDS011;61313;48.396;10.008;2024-01-07T14:03:54;19.50;;;10.90;;
8252;SDS011;61313;48.396;10.008;2024-01-07T14:06:19;22.13;;;9.30;;
8252;SDS011;61313;48.396;10.008;2024-01-07T14:08:46;11.90;;;8.80;;
8252;SDS011;61313;48.396;10.008;2024-01-07T14:11:11;11.00;;;9.00;;
8252;SDS011;61313;48.396;10.008;2024-01-07T14:13:37;23.23;;;9.60;;
8252;SDS011;61313;48.396;10.008;2024-01-07T14:16:02;18.30;;;8.90;;
8252;SDS011;61313;48.396;10.008;2024-01-07T14:18:28;13.80;;;8.80;;
8252;SDS011;61313;48.396;10.008;2024-01-07T14:20:53;8.50;;;7.30;;
8252;SDS011;61313;48.396;10.008;2024-01-07T14:23:18;10.40;;;8.67;;
8252;SDS011;61313;48.396;10.008;2024-01-07T14:25:44;12.30;;;8.00;;
8252;SDS011;61313;48.396;10.008;2024-01-07T14:28:09;8.80;;;7.90;;
8252;SDS011;61313;48.396;10.008;2024-01-07T14:30:35;12.40;;;9.10;;
8252;SDS011;61313;48.396;10.008;2024-01-07T14:33:01;10.73;;;9.00;;
8252;SDS011;61313;48.396;10.008;2024-01-07T14:35:26;10.87;;;8.93;;
8252;SDS011;61313;48.396;10.008;2024-01-07T14:37:54;12.80;;;11.50;;
8252;SDS011;61313;48.396;10.008;2024-01-07T14:40:19;18.87;;;11.70;;
8252;SDS011;61313;48.396;10.008;2024-01-07T14:42:45;12.77;;;9.73;;